PWSweather.com
Personal Weather Stations
Station Observations
WATERF01
WaterfordIE

WaterfordIE

Lat: 52.2412507, Lon: -7.1414691

Elevation: 65

Station Type: Davis Vantage Vue

www.waterfordweather.com

High Low Average
Temperature 49.7°F9.8°C 33.8°F1.0°C 42.2°F5.7°C
Dew Point 49.4°F9.7°C 33.5°F0.8°C 41.7°F5.4°C
Winds 15.0 mph 24.1 kmh Calm Calm 5.0 mph SW8.0 kmh SW
Wind Gusts 28.8 mph46.3 kmh -- 9.0 mph14.5 kmh
Humidity 99% 93% 98%
Pressure 30.01 in1016.3 mb 29.59 in1002.0 mb -
Precipitation 0.21 in5.3 mm - -
Hour Temp Dew Point Humidity Winds Wind Gusts Pressure Precip Precip Rate Daily Precip Total
12:00 AM 38.0°F3.3°C 37.7°F3.2°C 99% Calm Calm -- 29.97 in1014.9 mb - 0.00 in0.0 mm 0.00 in0.0 mm
12:10 AM 37.3°F2.9°C 37.0°F2.8°C 99% Calm Calm -- 29.97 in1014.9 mb - 0.00 in0.0 mm 0.00 in0.0 mm
12:20 AM 36.4°F2.4°C 36.1°F2.3°C 99% Calm Calm -- 29.97 in1014.9 mb - 0.00 in0.0 mm 0.00 in0.0 mm
12:30 AM 36.3°F2.4°C 36.0°F2.2°C 99% Calm Calm -- 29.97 in1014.9 mb - 0.01 in0.3 mm 0.01 in0.3 mm
12:40 AM 36.5°F2.5°C 36.2°F2.3°C 99% Calm Calm -- 29.97 in1014.9 mb - 0.01 in0.3 mm 0.01 in0.3 mm
12:50 AM 36.9°F2.7°C 36.6°F2.6°C 99% Calm Calm -- 29.97 in1014.9 mb - 0.00 in0.0 mm 0.01 in0.3 mm
01:00 AM 36.9°F2.7°C 36.6°F2.6°C 99% Calm Calm -- 29.97 in1014.9 mb - 0.00 in0.0 mm 0.01 in0.3 mm
01:10 AM 37.1°F2.8°C 36.9°F2.7°C 99% Calm Calm -- 29.98 in1015.2 mb - 0.00 in0.0 mm 0.01 in0.3 mm
01:20 AM 37.2°F2.9°C 36.9°F2.7°C 99% Calm Calm -- 29.98 in1015.2 mb - 0.00 in0.0 mm 0.01 in0.3 mm
01:30 AM 37.4°F3.0°C 37.1°F2.8°C 99% Calm Calm -- 29.98 in1015.2 mb - 0.00 in0.0 mm 0.01 in0.3 mm
01:40 AM 37.5°F3.1°C 37.2°F2.9°C 99% Calm Calm -- 29.98 in1015.2 mb - 0.00 in0.0 mm 0.01 in0.3 mm
01:50 AM 37.3°F2.9°C 37.1°F2.8°C 99% Calm Calm -- 29.98 in1015.2 mb - 0.00 in0.0 mm 0.01 in0.3 mm
02:00 AM 37.4°F3.0°C 37.1°F2.8°C 99% Calm Calm -- 29.98 in1015.2 mb - 0.00 in0.0 mm 0.01 in0.3 mm
02:10 AM 37.5°F3.1°C 37.2°F2.9°C 99% Calm Calm -- 29.98 in1015.2 mb - 0.00 in0.0 mm 0.01 in0.3 mm
02:20 AM 37.4°F3.0°C 37.1°F2.8°C 99% Calm Calm -- 29.98 in1015.2 mb - 0.00 in0.0 mm 0.01 in0.3 mm
02:30 AM 37.0°F2.8°C 36.7°F2.6°C 99% Calm Calm -- 29.99 in1015.6 mb - 0.00 in0.0 mm 0.01 in0.3 mm
02:40 AM 37.0°F2.8°C 36.7°F2.6°C 99% Calm Calm -- 30.00 in1015.9 mb - 0.00 in0.0 mm 0.01 in0.3 mm
02:50 AM 37.0°F2.8°C 36.7°F2.6°C 99% Calm Calm -- 29.99 in1015.6 mb - 0.00 in0.0 mm 0.01 in0.3 mm
03:00 AM 36.8°F2.7°C 36.6°F2.6°C 99% Calm Calm -- 29.99 in1015.6 mb - 0.00 in0.0 mm 0.01 in0.3 mm
03:10 AM 36.7°F2.6°C 36.4°F2.4°C 99% Calm Calm -- 30.00 in1015.9 mb - 0.00 in0.0 mm 0.01 in0.3 mm
03:20 AM 36.6°F2.6°C 36.3°F2.4°C 99% Calm Calm -- 30.00 in1015.9 mb - 0.00 in0.0 mm 0.01 in0.3 mm
03:30 AM 36.5°F2.5°C 36.3°F2.4°C 99% Calm Calm -- 29.99 in1015.6 mb - 0.00 in0.0 mm 0.01 in0.3 mm
03:40 AM 36.3°F2.4°C 36.0°F2.2°C 99% Calm Calm -- 30.00 in1015.9 mb - 0.00 in0.0 mm 0.01 in0.3 mm
03:50 AM 35.9°F2.2°C 35.7°F2.1°C 99% Calm Calm -- 30.00 in1015.9 mb - 0.00 in0.0 mm 0.01 in0.3 mm
04:00 AM 35.6°F2.0°C 35.3°F1.8°C 99% Calm Calm -- 30.00 in1015.9 mb - 0.00 in0.0 mm 0.01 in0.3 mm
04:10 AM 35.6°F2.0°C 35.3°F1.8°C 99% Calm Calm -- 30.00 in1015.9 mb - 0.00 in0.0 mm 0.01 in0.3 mm
04:20 AM 35.6°F2.0°C 35.3°F1.8°C 99% Calm Calm -- 29.99 in1015.6 mb - 0.00 in0.0 mm 0.01 in0.3 mm
04:30 AM 35.6°F2.0°C 35.4°F1.9°C 99% Calm Calm -- 29.99 in1015.6 mb - 0.00 in0.0 mm 0.01 in0.3 mm
04:40 AM 35.2°F1.8°C 34.9°F1.6°C 99% Calm Calm -- 29.99 in1015.6 mb - 0.00 in0.0 mm 0.01 in0.3 mm
04:50 AM 35.0°F1.7°C 34.7°F1.5°C 99% Calm Calm -- 29.99 in1015.6 mb - 0.00 in0.0 mm 0.01 in0.3 mm
05:00 AM 34.9°F1.6°C 34.6°F1.4°C 99% Calm Calm -- 29.99 in1015.6 mb - 0.00 in0.0 mm 0.01 in0.3 mm
05:10 AM 35.0°F1.7°C 34.8°F1.6°C 99% Calm Calm -- 29.99 in1015.6 mb - 0.00 in0.0 mm 0.01 in0.3 mm
05:20 AM 35.1°F1.7°C 34.8°F1.6°C 99% Calm Calm -- 30.00 in1015.9 mb - 0.00 in0.0 mm 0.01 in0.3 mm
05:30 AM 35.2°F1.8°C 34.9°F1.6°C 99% Calm Calm -- 30.00 in1015.9 mb - 0.00 in0.0 mm 0.01 in0.3 mm
05:40 AM 35.2°F1.8°C 34.9°F1.6°C 99% Calm Calm -- 29.99 in1015.6 mb - 0.00 in0.0 mm 0.01 in0.3 mm
05:50 AM 35.1°F1.7°C 34.9°F1.6°C 99% Calm Calm -- 29.99 in1015.6 mb - 0.00 in0.0 mm 0.01 in0.3 mm
06:00 AM 35.1°F1.7°C 34.8°F1.6°C 99% Calm Calm -- 29.99 in1015.6 mb - 0.00 in0.0 mm 0.01 in0.3 mm
06:10 AM 34.8°F1.6°C 34.6°F1.4°C 99% Calm Calm -- 30.00 in1015.9 mb - 0.00 in0.0 mm 0.01 in0.3 mm
06:20 AM 34.6°F1.4°C 34.3°F1.3°C 99% Calm Calm -- 30.00 in1015.9 mb - 0.00 in0.0 mm 0.01 in0.3 mm
06:30 AM 34.2°F1.2°C 33.9°F1.1°C 99% Calm Calm -- 30.00 in1015.9 mb - 0.00 in0.0 mm 0.01 in0.3 mm
06:40 AM 34.2°F1.2°C 33.9°F1.1°C 99% Calm Calm -- 30.01 in1016.3 mb - 0.00 in0.0 mm 0.01 in0.3 mm
06:50 AM 34.5°F1.4°C 34.2°F1.2°C 99% Calm Calm -- 30.00 in1015.9 mb - 0.00 in0.0 mm 0.01 in0.3 mm
07:00 AM 34.2°F1.2°C 33.9°F1.1°C 99% Calm Calm -- 30.01 in1016.3 mb - 0.00 in0.0 mm 0.01 in0.3 mm
07:10 AM 34.4°F1.3°C 34.2°F1.2°C 99% Calm Calm -- 30.01 in1016.3 mb - 0.00 in0.0 mm 0.01 in0.3 mm
07:20 AM 34.1°F1.2°C 33.8°F1.0°C 99% Calm Calm -- 30.00 in1015.9 mb - 0.00 in0.0 mm 0.01 in0.3 mm
07:30 AM 34.4°F1.3°C 34.1°F1.2°C 99% Calm Calm -- 30.00 in1015.9 mb - 0.00 in0.0 mm 0.01 in0.3 mm
07:40 AM 34.5°F1.4°C 34.2°F1.2°C 99% Calm Calm -- 30.00 in1015.9 mb - 0.00 in0.0 mm 0.01 in0.3 mm
07:50 AM 34.5°F1.4°C 34.3°F1.3°C 99% Calm Calm -- 30.00 in1015.9 mb - 0.00 in0.0 mm 0.01 in0.3 mm
08:00 AM 34.7°F1.5°C 34.4°F1.3°C 99% Calm Calm -- 30.00 in1015.9 mb - 0.00 in0.0 mm 0.01 in0.3 mm
08:10 AM 34.4°F1.3°C 34.1°F1.2°C 99% Calm Calm -- 30.00 in1015.9 mb - 0.00 in0.0 mm 0.01 in0.3 mm
08:20 AM 34.3°F1.3°C 34.0°F1.1°C 99% 2.3 mph SE3.7 kmh SE 4.6 mph7.4 kmh 30.00 in1015.9 mb - 0.01 in0.3 mm 0.02 in0.5 mm
08:30 AM 33.8°F1.0°C 33.5°F0.8°C 99% Calm Calm -- 30.00 in1015.9 mb - 0.00 in0.0 mm 0.02 in0.5 mm
08:40 AM 34.1°F1.2°C 33.8°F1.0°C 99% Calm Calm -- 30.01 in1016.3 mb - 0.00 in0.0 mm 0.02 in0.5 mm
08:50 AM 34.5°F1.4°C 34.3°F1.3°C 99% Calm Calm -- 30.00 in1015.9 mb - 0.00 in0.0 mm 0.02 in0.5 mm
09:00 AM 34.8°F1.6°C 34.5°F1.4°C 99% Calm Calm -- 30.00 in1015.9 mb - 0.00 in0.0 mm 0.02 in0.5 mm
09:10 AM 35.0°F1.7°C 34.7°F1.5°C 99% Calm Calm -- 30.01 in1016.3 mb - 0.00 in0.0 mm 0.02 in0.5 mm
09:20 AM 34.7°F1.5°C 34.4°F1.3°C 99% Calm Calm -- 30.01 in1016.3 mb - 0.00 in0.0 mm 0.02 in0.5 mm
09:30 AM 34.4°F1.3°C 34.1°F1.2°C 99% Calm Calm -- 30.01 in1016.3 mb - 0.00 in0.0 mm 0.02 in0.5 mm
09:40 AM 34.3°F1.3°C 34.0°F1.1°C 99% Calm Calm -- 30.00 in1015.9 mb - 0.00 in0.0 mm 0.02 in0.5 mm
09:50 AM 34.4°F1.3°C 34.1°F1.2°C 99% Calm Calm -- 30.01 in1016.3 mb - 0.00 in0.0 mm 0.02 in0.5 mm
10:00 AM 34.5°F1.4°C 34.3°F1.3°C 99% Calm Calm -- 30.01 in1016.3 mb - 0.00 in0.0 mm 0.02 in0.5 mm
10:10 AM 35.4°F1.9°C 35.1°F1.7°C 99% Calm Calm -- 30.01 in1016.3 mb - 0.00 in0.0 mm 0.02 in0.5 mm
10:20 AM 36.1°F2.3°C 35.8°F2.1°C 99% Calm Calm -- 30.00 in1015.9 mb - 0.00 in0.0 mm 0.02 in0.5 mm
10:30 AM 36.7°F2.6°C 36.4°F2.4°C 99% Calm Calm -- 30.00 in1015.9 mb - 0.00 in0.0 mm 0.02 in0.5 mm
10:40 AM 37.3°F2.9°C 37.0°F2.8°C 99% Calm Calm -- 29.99 in1015.6 mb - 0.00 in0.0 mm 0.02 in0.5 mm
10:50 AM 38.3°F3.5°C 38.0°F3.3°C 99% Calm Calm -- 29.99 in1015.6 mb - 0.00 in0.0 mm 0.02 in0.5 mm
11:00 AM 40.0°F4.4°C 39.7°F4.3°C 99% Calm Calm -- 29.99 in1015.6 mb - 0.00 in0.0 mm 0.02 in0.5 mm
11:10 AM 42.5°F5.8°C 42.3°F5.7°C 99% 4.6 mph S7.4 kmh S 6.9 mph11.1 kmh 29.98 in1015.2 mb - 0.00 in0.0 mm 0.02 in0.5 mm
11:20 AM 45.6°F7.6°C 45.4°F7.4°C 99% 6.9 mph SW11.1 kmh SW 9.2 mph14.8 kmh 29.98 in1015.2 mb - 0.00 in0.0 mm 0.02 in0.5 mm
11:30 AM 46.5°F8.1°C 46.2°F7.9°C 99% 5.8 mph SW9.3 kmh SW 11.5 mph18.5 kmh 29.97 in1014.9 mb - 0.00 in0.0 mm 0.02 in0.5 mm
11:40 AM 46.7°F8.2°C 46.4°F8.0°C 99% 9.2 mph SW14.8 kmh SW 12.7 mph20.4 kmh 29.97 in1014.9 mb - 0.00 in0.0 mm 0.02 in0.5 mm
11:50 AM 46.6°F8.1°C 45.8°F7.7°C 97% 5.8 mph WSW9.3 kmh WSW 11.5 mph18.5 kmh 29.97 in1014.9 mb - 0.00 in0.0 mm 0.02 in0.5 mm
12:00 PM 46.5°F8.1°C 45.1°F7.3°C 95% 9.2 mph SW14.8 kmh SW 13.8 mph22.2 kmh 29.96 in1014.6 mb - 0.00 in0.0 mm 0.02 in0.5 mm
12:10 PM 46.7°F8.2°C 45.3°F7.4°C 95% 8.1 mph SW13.0 kmh SW 11.5 mph18.5 kmh 29.96 in1014.6 mb - 0.00 in0.0 mm 0.02 in0.5 mm
12:20 PM 46.7°F8.2°C 45.1°F7.3°C 94% 8.1 mph SW13.0 kmh SW 15.0 mph24.1 kmh 29.96 in1014.6 mb - 0.00 in0.0 mm 0.02 in0.5 mm
12:30 PM 46.9°F8.3°C 45.2°F7.3°C 94% 5.8 mph SW9.3 kmh SW 8.1 mph13.0 kmh 29.95 in1014.2 mb - 0.00 in0.0 mm 0.02 in0.5 mm
12:40 PM 47.2°F8.4°C 45.3°F7.4°C 93% 9.2 mph SSW14.8 kmh SSW 16.1 mph25.9 kmh 29.95 in1014.2 mb - 0.00 in0.0 mm 0.02 in0.5 mm
12:50 PM 47.5°F8.6°C 45.6°F7.6°C 93% 9.2 mph SSW14.8 kmh SSW 13.8 mph22.2 kmh 29.94 in1013.9 mb - 0.00 in0.0 mm 0.02 in0.5 mm
01:00 PM 47.6°F8.7°C 46.0°F7.8°C 94% 8.1 mph SW13.0 kmh SW 13.8 mph22.2 kmh 29.94 in1013.9 mb - 0.00 in0.0 mm 0.02 in0.5 mm
01:10 PM 47.6°F8.7°C 45.7°F7.6°C 93% 11.5 mph SSW18.5 kmh SSW 15.0 mph24.1 kmh 29.93 in1013.5 mb - 0.00 in0.0 mm 0.02 in0.5 mm
01:20 PM 47.7°F8.7°C 45.8°F7.7°C 93% 8.1 mph SSW13.0 kmh SSW 15.0 mph24.1 kmh 29.93 in1013.5 mb - 0.00 in0.0 mm 0.02 in0.5 mm
01:30 PM 47.7°F8.7°C 46.0°F7.8°C 94% 11.5 mph SW18.5 kmh SW 13.8 mph22.2 kmh 29.93 in1013.5 mb - 0.00 in0.0 mm 0.02 in0.5 mm
01:40 PM 47.5°F8.6°C 46.7°F8.2°C 97% 8.1 mph N13.0 kmh N 11.5 mph18.5 kmh 29.92 in1013.2 mb - 0.00 in0.0 mm 0.02 in0.5 mm
01:50 PM 47.5°F8.6°C 46.7°F8.2°C 97% 9.2 mph SW14.8 kmh SW 13.8 mph22.2 kmh 29.91 in1012.9 mb - 0.00 in0.0 mm 0.02 in0.5 mm
02:00 PM 47.9°F8.8°C 47.1°F8.4°C 97% 8.1 mph SW13.0 kmh SW 13.8 mph22.2 kmh 29.91 in1012.9 mb - 0.00 in0.0 mm 0.02 in0.5 mm
02:10 PM 48.0°F8.9°C 47.5°F8.6°C 98% 8.1 mph SW13.0 kmh SW 12.7 mph20.4 kmh 29.90 in1012.5 mb - 0.00 in0.0 mm 0.02 in0.5 mm
02:20 PM 48.1°F8.9°C 47.6°F8.7°C 98% 12.7 mph W20.4 kmh W 26.5 mph42.6 kmh 29.89 in1012.2 mb - 0.00 in0.0 mm 0.02 in0.5 mm
02:30 PM 47.7°F8.7°C 47.4°F8.6°C 99% 9.2 mph E14.8 kmh E 16.1 mph25.9 kmh 29.89 in1012.2 mb - 0.00 in0.0 mm 0.02 in0.5 mm
02:40 PM 47.6°F8.7°C 47.3°F8.5°C 99% 10.4 mph WSW16.7 kmh WSW 18.4 mph29.6 kmh 29.88 in1011.9 mb - 0.00 in0.0 mm 0.02 in0.5 mm
02:50 PM 47.4°F8.6°C 47.1°F8.4°C 99% 10.4 mph W16.7 kmh W 16.1 mph25.9 kmh 29.88 in1011.9 mb - 0.00 in0.0 mm 0.02 in0.5 mm
03:00 PM 47.1°F8.4°C 46.8°F8.2°C 99% 9.2 mph W14.8 kmh W 15.0 mph24.1 kmh 29.88 in1011.9 mb - 0.00 in0.0 mm 0.02 in0.5 mm
03:10 PM 47.1°F8.4°C 46.8°F8.2°C 99% 9.2 mph WSW14.8 kmh WSW 13.8 mph22.2 kmh 29.88 in1011.9 mb - 0.00 in0.0 mm 0.02 in0.5 mm
03:20 PM 47.2°F8.4°C 46.9°F8.3°C 99% 8.1 mph NW13.0 kmh NW 16.1 mph25.9 kmh 29.87 in1011.5 mb - 0.00 in0.0 mm 0.02 in0.5 mm
03:30 PM 47.2°F8.4°C 46.9°F8.3°C 99% 8.1 mph W13.0 kmh W 16.1 mph25.9 kmh 29.87 in1011.5 mb - 0.00 in0.0 mm 0.02 in0.5 mm
03:40 PM 47.2°F8.4°C 46.9°F8.3°C 99% 5.8 mph W9.3 kmh W 11.5 mph18.5 kmh 29.86 in1011.2 mb - 0.00 in0.0 mm 0.02 in0.5 mm
03:50 PM 47.1°F8.4°C 46.8°F8.2°C 99% 5.8 mph W9.3 kmh W 9.2 mph14.8 kmh 29.86 in1011.2 mb - 0.00 in0.0 mm 0.02 in0.5 mm
04:00 PM 47.2°F8.4°C 46.9°F8.3°C 99% 6.9 mph WSW11.1 kmh WSW 9.2 mph14.8 kmh 29.86 in1011.2 mb - 0.00 in0.0 mm 0.02 in0.5 mm
04:10 PM 47.2°F8.4°C 46.7°F8.2°C 98% 6.9 mph WSW11.1 kmh WSW 12.7 mph20.4 kmh 29.85 in1010.8 mb - 0.00 in0.0 mm 0.02 in0.5 mm
04:20 PM 47.3°F8.5°C 46.8°F8.2°C 98% 8.1 mph W13.0 kmh W 16.1 mph25.9 kmh 29.85 in1010.8 mb - 0.00 in0.0 mm 0.02 in0.5 mm
04:30 PM 47.4°F8.6°C 46.9°F8.3°C 98% 8.1 mph SW13.0 kmh SW 18.4 mph29.6 kmh 29.84 in1010.5 mb - 0.00 in0.0 mm 0.02 in0.5 mm
04:40 PM 47.5°F8.6°C 47.0°F8.3°C 98% 8.1 mph W13.0 kmh W 11.5 mph18.5 kmh 29.84 in1010.5 mb - 0.00 in0.0 mm 0.02 in0.5 mm
04:50 PM 47.5°F8.6°C 47.0°F8.3°C 98% 5.8 mph WNW9.3 kmh WNW 13.8 mph22.2 kmh 29.84 in1010.5 mb - 0.00 in0.0 mm 0.02 in0.5 mm
05:00 PM 47.6°F8.7°C 46.8°F8.2°C 97% 9.2 mph WSW14.8 kmh WSW 13.8 mph22.2 kmh 29.84 in1010.5 mb - 0.00 in0.0 mm 0.02 in0.5 mm
05:10 PM 47.7°F8.7°C 46.6°F8.1°C 96% 9.2 mph W14.8 kmh W 15.0 mph24.1 kmh 29.84 in1010.5 mb - 0.00 in0.0 mm 0.02 in0.5 mm
05:20 PM 47.7°F8.7°C 46.6°F8.1°C 96% 9.2 mph W14.8 kmh W 19.6 mph31.5 kmh 29.83 in1010.2 mb - 0.00 in0.0 mm 0.02 in0.5 mm
05:30 PM 47.6°F8.7°C 47.1°F8.4°C 98% 8.1 mph SW13.0 kmh SW 15.0 mph24.1 kmh 29.83 in1010.2 mb - 0.00 in0.0 mm 0.02 in0.5 mm
05:40 PM 47.5°F8.6°C 47.2°F8.4°C 99% 6.9 mph SW11.1 kmh SW 12.7 mph20.4 kmh 29.83 in1010.2 mb - 0.01 in0.3 mm 0.03 in0.8 mm
05:50 PM 47.5°F8.6°C 47.0°F8.3°C 98% 10.4 mph WSW16.7 kmh WSW 15.0 mph24.1 kmh 29.82 in1009.8 mb - 0.00 in0.0 mm 0.03 in0.8 mm
06:00 PM 47.5°F8.6°C 47.0°F8.3°C 98% 8.1 mph SW13.0 kmh SW 16.1 mph25.9 kmh 29.82 in1009.8 mb - 0.00 in0.0 mm 0.03 in0.8 mm
06:10 PM 47.6°F8.7°C 47.1°F8.4°C 98% 10.4 mph W16.7 kmh W 16.1 mph25.9 kmh 29.81 in1009.5 mb - 0.00 in0.0 mm 0.03 in0.8 mm
06:20 PM 47.7°F8.7°C 47.1°F8.4°C 98% 11.5 mph SW18.5 kmh SW 19.6 mph31.5 kmh 29.80 in1009.1 mb - 0.00 in0.0 mm 0.03 in0.8 mm
06:30 PM 47.7°F8.7°C 47.4°F8.6°C 99% 10.4 mph WSW16.7 kmh WSW 18.4 mph29.6 kmh 29.80 in1009.1 mb - 0.00 in0.0 mm 0.03 in0.8 mm
06:40 PM 47.5°F8.6°C 47.2°F8.4°C 99% 11.5 mph SW18.5 kmh SW 19.6 mph31.5 kmh 29.79 in1008.8 mb - 0.00 in0.0 mm 0.03 in0.8 mm
06:50 PM 47.3°F8.5°C 47.1°F8.4°C 99% 13.8 mph WSW22.2 kmh WSW 21.9 mph35.2 kmh 29.78 in1008.5 mb - 0.01 in0.3 mm 0.04 in1.0 mm
07:00 PM 47.3°F8.5°C 47.0°F8.3°C 99% 11.5 mph W18.5 kmh W 25.3 mph40.7 kmh 29.78 in1008.5 mb - 0.00 in0.0 mm 0.04 in1.0 mm
07:10 PM 47.3°F8.5°C 47.0°F8.3°C 99% 12.7 mph WSW20.4 kmh WSW 19.6 mph31.5 kmh 29.77 in1008.1 mb - 0.01 in0.3 mm 0.05 in1.3 mm
07:20 PM 47.4°F8.6°C 47.1°F8.4°C 99% 13.8 mph WSW22.2 kmh WSW 21.9 mph35.2 kmh 29.77 in1008.1 mb - 0.00 in0.0 mm 0.05 in1.3 mm
07:30 PM 47.4°F8.6°C 47.1°F8.4°C 99% 11.5 mph WSW18.5 kmh WSW 19.6 mph31.5 kmh 29.76 in1007.8 mb - 0.00 in0.0 mm 0.05 in1.3 mm
07:40 PM 47.4°F8.6°C 47.1°F8.4°C 99% 11.5 mph SW18.5 kmh SW 20.7 mph33.3 kmh 29.75 in1007.5 mb - 0.01 in0.3 mm 0.06 in1.5 mm
07:50 PM 47.4°F8.6°C 47.1°F8.4°C 99% 13.8 mph SW22.2 kmh SW 21.9 mph35.2 kmh 29.75 in1007.5 mb - 0.00 in0.0 mm 0.06 in1.5 mm
08:00 PM 47.5°F8.6°C 47.2°F8.4°C 99% 13.8 mph WSW22.2 kmh WSW 19.6 mph31.5 kmh 29.74 in1007.1 mb - 0.00 in0.0 mm 0.06 in1.5 mm
08:10 PM 47.6°F8.7°C 47.3°F8.5°C 99% 12.7 mph WSW20.4 kmh WSW 19.6 mph31.5 kmh 29.73 in1006.8 mb - 0.01 in0.3 mm 0.07 in1.8 mm
08:20 PM 47.7°F8.7°C 47.4°F8.6°C 99% 13.8 mph NNW22.2 kmh NNW 26.5 mph42.6 kmh 29.72 in1006.4 mb - 0.01 in0.3 mm 0.08 in2.0 mm
08:30 PM 47.8°F8.8°C 47.5°F8.6°C 99% 11.5 mph SW18.5 kmh SW 19.6 mph31.5 kmh 29.71 in1006.1 mb - 0.01 in0.3 mm 0.09 in2.3 mm
08:40 PM 47.9°F8.8°C 47.6°F8.7°C 99% 12.7 mph W20.4 kmh W 19.6 mph31.5 kmh 29.71 in1006.1 mb - 0.01 in0.3 mm 0.10 in2.5 mm
08:50 PM 47.9°F8.8°C 47.6°F8.7°C 99% 12.7 mph W20.4 kmh W 26.5 mph42.6 kmh 29.70 in1005.8 mb - 0.01 in0.3 mm 0.11 in2.8 mm
09:00 PM 48.0°F8.9°C 47.7°F8.7°C 99% 9.2 mph NW14.8 kmh NW 16.1 mph25.9 kmh 29.69 in1005.4 mb - 0.01 in0.3 mm 0.12 in3.0 mm
09:10 PM 48.2°F9.0°C 47.9°F8.8°C 99% 15.0 mph W24.1 kmh W 28.8 mph46.3 kmh 29.68 in1005.1 mb - 0.01 in0.3 mm 0.13 in3.3 mm
09:20 PM 48.3°F9.1°C 48.0°F8.9°C 99% 11.5 mph SW18.5 kmh SW 20.7 mph33.3 kmh 29.68 in1005.1 mb - 0.00 in0.0 mm 0.13 in3.3 mm
09:30 PM 48.5°F9.2°C 48.2°F9.0°C 99% 9.2 mph W14.8 kmh W 13.8 mph22.2 kmh 29.66 in1004.4 mb - 0.01 in0.3 mm 0.14 in3.6 mm
09:40 PM 48.6°F9.2°C 48.3°F9.1°C 99% 10.4 mph SW16.7 kmh SW 20.7 mph33.3 kmh 29.66 in1004.4 mb - 0.01 in0.3 mm 0.15 in3.8 mm
09:50 PM 48.9°F9.4°C 48.6°F9.2°C 99% 9.2 mph WSW14.8 kmh WSW 17.3 mph27.8 kmh 29.66 in1004.4 mb - 0.00 in0.0 mm 0.15 in3.8 mm
10:00 PM 49.0°F9.4°C 48.7°F9.3°C 99% 12.7 mph WSW20.4 kmh WSW 21.9 mph35.2 kmh 29.65 in1004.1 mb - 0.01 in0.3 mm 0.16 in4.1 mm
10:10 PM 49.2°F9.6°C 48.9°F9.4°C 99% 11.5 mph SW18.5 kmh SW 16.1 mph25.9 kmh 29.63 in1003.4 mb - 0.01 in0.3 mm 0.17 in4.3 mm
10:20 PM 49.4°F9.7°C 49.1°F9.5°C 99% 10.4 mph SW16.7 kmh SW 19.6 mph31.5 kmh 29.63 in1003.4 mb - 0.01 in0.3 mm 0.18 in4.6 mm
10:30 PM 49.5°F9.7°C 49.2°F9.6°C 99% 12.7 mph WSW20.4 kmh WSW 26.5 mph42.6 kmh 29.62 in1003.0 mb - 0.00 in0.0 mm 0.18 in4.6 mm
10:40 PM 49.5°F9.7°C 49.2°F9.6°C 99% 13.8 mph W22.2 kmh W 26.5 mph42.6 kmh 29.62 in1003.0 mb - 0.01 in0.3 mm 0.19 in4.8 mm
10:50 PM 49.6°F9.8°C 49.3°F9.6°C 99% 12.7 mph SW20.4 kmh SW 21.9 mph35.2 kmh 29.62 in1003.0 mb - 0.00 in0.0 mm 0.19 in4.8 mm
11:00 PM 49.7°F9.8°C 49.4°F9.7°C 99% 11.5 mph W18.5 kmh W 20.7 mph33.3 kmh 29.61 in1002.7 mb - 0.01 in0.3 mm 0.20 in5.1 mm
11:10 PM 49.7°F9.8°C 49.4°F9.7°C 99% 11.5 mph WSW18.5 kmh WSW 21.9 mph35.2 kmh 29.61 in1002.7 mb - 0.00 in0.0 mm 0.20 in5.1 mm
11:20 PM 49.7°F9.8°C 49.4°F9.7°C 99% 9.2 mph WSW14.8 kmh WSW 16.1 mph25.9 kmh 29.60 in1002.4 mb - 0.01 in0.3 mm 0.21 in5.3 mm
11:30 PM 49.7°F9.8°C 49.4°F9.7°C 99% 8.1 mph WSW13.0 kmh WSW 12.7 mph20.4 kmh 29.60 in1002.4 mb - 0.00 in0.0 mm 0.21 in5.3 mm
11:40 PM 49.7°F9.8°C 49.4°F9.7°C 99% 8.1 mph WSW13.0 kmh WSW 19.6 mph31.5 kmh 29.60 in1002.4 mb - 0.00 in0.0 mm 0.21 in5.3 mm
11:50 PM 49.7°F9.8°C 49.4°F9.7°C 99% 8.1 mph W13.0 kmh W 15.0 mph24.1 kmh 29.59 in1002.0 mb - 0.00 in0.0 mm 0.21 in5.3 mm